Time;durP1;ratioP1;P1;durP2;ratioP2;P2;SDS_P1;SDS_P2;PMS_P1;PMS_P2;Temp;Humidity;BMP_temperature;BMP_pressure;BME280_temperature;BME280_humidity;BME280_pressure;Samples;Min_cycle;Max_cycle;Signal;HPM_P1;HPM_P2
2022/09/18 00:01:26;;;;;;;2.75;0.80;;;10.90;99.90;;;;;;5070203;28;20047;-81
2022/09/18 00:03:55;;;;;;;4.63;1.00;;;11.00;99.90;;;;;;5070160;28;20657;-81
2022/09/18 00:06:23;;;;;;;6.60;1.45;;;11.00;99.90;;;;;;5069331;28;20051;-82
2022/09/18 00:08:51;;;;;;;8.85;1.13;;;11.00;99.90;;;;;;5071972;28;20481;-81
2022/09/18 00:11:18;;;;;;;4.82;0.85;;;11.00;99.90;;;;;;5070960;28;20032;-80
2022/09/18 00:13:44;;;;;;;6.68;1.35;;;11.00;99.90;;;;;;5069516;28;20082;-81
2022/09/18 00:16:12;;;;;;;8.60;2.58;;;11.00;99.90;;;;;;5070971;28;20024;-80
2022/09/18 00:18:38;;;;;;;7.60;1.00;;;11.00;99.90;;;;;;5070433;28;20051;-80
2022/09/18 00:21:11;;;;;;;5.15;1.63;;;11.00;99.90;;;;;;5069169;28;20541;-81
2022/09/18 00:23:36;;;;;;;7.78;1.27;;;11.00;99.90;;;;;;5070738;28;20032;-81
2022/09/18 00:26:04;;;;;;;6.15;2.13;;;11.00;99.90;;;;;;5070665;28;20058;-80
2022/09/18 00:28:29;;;;;;;2.75;0.60;;;11.10;99.90;;;;;;5070968;28;20115;-81
2022/09/18 00:30:55;;;;;;;6.65;1.10;;;11.10;99.90;;;;;;5067803;28;20144;-79
2022/09/18 00:33:20;;;;;;;5.75;1.30;;;11.10;99.90;;;;;;5069019;28;20059;-81
2022/09/18 00:35:46;;;;;;;7.30;1.20;;;11.00;99.90;;;;;;5062008;28;20096;-80
2022/09/18 00:38:12;;;;;;;6.68;1.65;;;11.00;99.90;;;;;;5070912;28;20090;-81
2022/09/18 00:40:38;;;;;;;6.43;1.25;;;11.00;99.90;;;;;;5071126;28;20028;-81
2022/09/18 00:43:22;;;;;;;5.40;1.23;;;11.00;99.90;;;;;;5069554;28;20017;-81
2022/09/18 00:46:06;;;;;;;4.82;1.00;;;11.00;99.90;;;;;;5065727;28;20515;-81
2022/09/18 00:49:25;;;;;;;5.60;1.45;;;11.00;99.90;;;;;;5071182;28;20760;-80
2022/09/18 00:51:54;;;;;;;9.45;1.80;;;11.10;99.90;;;;;;5000900;28;20060;-80
2022/09/18 00:54:38;;;;;;;7.68;1.23;;;11.00;99.90;;;;;;5059722;28;20047;-81
2022/09/18 00:57:07;;;;;;;4.47;1.27;;;11.00;99.90;;;;;;5063033;28;20108;-81
2022/09/18 00:59:35;;;;;;;4.78;1.33;;;11.00;99.90;;;;;;5071624;28;20020;-81
2022/09/18 01:02:01;;;;;;;6.25;1.85;;;11.00;99.90;;;;;;5068775;28;20032;-80
2022/09/18 01:04:27;;;;;;;9.48;1.27;;;11.00;99.90;;;;;;5066189;28;20369;-80
2022/09/18 01:07:15;;;;;;;4.38;1.23;;;11.00;99.90;;;;;;5076162;28;20033;-82
2022/09/18 01:09:53;;;;;;;7.93;1.40;;;11.10;99.90;;;;;;5073697;28;20029;-78
2022/09/18 01:12:43;;;;;;;7.68;1.55;;;11.00;99.90;;;;;;5067912;28;20039;-80
2022/09/18 01:15:24;;;;;;;10.25;1.15;;;11.00;99.90;;;;;;5065866;28;20070;-81
2022/09/18 01:18:09;;;;;;;4.85;1.00;;;11.00;99.90;;;;;;5050110;28;20025;-79
2022/09/18 01:20:53;;;;;;;7.63;0.80;;;11.00;99.90;;;;;;5067747;28;20507;-81
2022/09/18 01:23:48;;;;;;;5.47;1.55;;;11.00;99.90;;;;;;5069428;28;20040;-80
2022/09/18 01:26:52;;;;;;;8.13;1.23;;;11.00;99.90;;;;;;5068280;28;20031;-81
2022/09/18 01:29:22;;;;;;;10.30;1.15;;;11.00;99.90;;;;;;5081799;28;20043;-80
2022/09/18 01:32:11;;;;;;;4.90;0.95;;;11.00;99.90;;;;;;5079225;28;20036;-79
2022/09/18 01:34:46;;;;;;;7.32;0.98;;;11.10;99.90;;;;;;5074252;28;20116;-80
2022/09/18 01:37:15;;;;;;;5.38;0.80;;;11.10;99.90;;;;;;5072080;28;20099;-80
2022/09/18 01:39:49;;;;;;;6.47;1.73;;;11.00;99.90;;;;;;5078012;28;20245;-80
2022/09/18 01:42:17;;;;;;;5.57;0.80;;;11.00;99.90;;;;;;5072518;28;20102;-81
2022/09/18 01:44:43;;;;;;;7.68;1.00;;;11.00;99.90;;;;;;5071843;28;20413;-80
2022/09/18 01:47:12;;;;;;;6.82;1.10;;;11.10;99.90;;;;;;5072447;28;20024;-82
2022/09/18 01:49:52;;;;;;;4.60;1.50;;;11.10;99.90;;;;;;5069722;28;20036;-82
2022/09/18 01:52:26;;;;;;;7.78;1.42;;;11.00;99.90;;;;;;5071110;28;20029;-80
2022/09/18 01:54:55;;;;;;;4.63;0.80;;;11.00;99.90;;;;;;5061650;28;20461;-81
2022/09/18 01:58:00;;;;;;;9.15;1.80;;;11.00;99.90;;;;;;5073214;28;20046;-82
2022/09/18 02:00:27;;;;;;;5.18;1.15;;;11.00;99.90;;;;;;5070638;28;20039;-81
2022/09/18 02:03:04;;;;;;;7.03;1.25;;;11.00;99.90;;;;;;5072367;28;20021;-81
2022/09/18 02:05:34;;;;;;;7.30;1.02;;;11.00;99.90;;;;;;5071537;28;20032;-80
2022/09/18 02:08:18;;;;;;;3.42;1.10;;;11.00;99.90;;;;;;5082602;28;20036;-80
2022/09/18 02:10:54;;;;;;;3.58;0.98;;;10.90;99.90;;;;;;5073309;28;20042;-80
2022/09/18 02:13:25;;;;;;;3.95;1.13;;;11.00;99.90;;;;;;5072230;28;20491;-82
2022/09/18 02:15:58;;;;;;;5.65;1.25;;;10.90;99.90;;;;;;5065461;28;20050;-81
2022/09/18 02:18:30;;;;;;;11.85;1.27;;;10.90;99.90;;;;;;5070710;28;20063;-81
2022/09/18 02:20:57;;;;;;;5.68;0.85;;;10.90;99.90;;;;;;5073832;28;20021;-82
2022/09/18 02:23:24;;;;;;;5.80;0.85;;;11.00;99.90;;;;;;5070280;28;20025;-84
2022/09/18 02:25:59;;;;;;;6.15;1.40;;;11.00;99.90;;;;;;5067844;28;20040;-80
2022/09/18 02:28:26;;;;;;;7.60;1.17;;;11.00;99.90;;;;;;5069615;28;20054;-80
2022/09/18 02:30:51;;;;;;;6.05;0.70;;;11.00;99.90;;;;;;5069754;28;20028;-83
2022/09/18 02:33:32;;;;;;;3.65;0.70;;;11.00;99.90;;;;;;5075035;28;20027;-82
2022/09/18 02:36:35;;;;;;;7.90;1.45;;;11.00;99.90;;;;;;5065413;28;20071;-80
2022/09/18 02:39:51;;;;;;;8.07;1.33;;;11.00;99.90;;;;;;5076996;28;20033;-82
2022/09/18 02:42:34;;;;;;;11.32;1.17;;;11.10;99.90;;;;;;5067733;28;20040;-82
2022/09/18 02:45:06;;;;;;;;;;;11.10;99.90;;;;;;5053441;28;20025;-80
2022/09/18 02:47:51;;;;;;;5.20;1.17;;;11.10;99.90;;;;;;5068471;28;19912;-82
2022/09/18 02:50:44;;;;;;;4.30;0.95;;;11.10;99.90;;;;;;5066335;28;20035;-83
2022/09/18 02:53:39;;;;;;;7.43;0.93;;;11.10;99.90;;;;;;5072940;28;20569;-80
2022/09/18 02:56:11;;;;;;;10.30;1.48;;;11.20;99.90;;;;;;5071965;28;20036;-81
2022/09/18 02:58:53;;;;;;;8.05;2.28;;;11.10;99.90;;;;;;5066046;28;20170;-80
2022/09/18 03:01:20;;;;;;;11.20;1.60;;;11.00;99.90;;;;;;5071399;28;20791;-82
2022/09/18 03:03:46;;;;;;;6.55;1.40;;;11.00;99.90;;;;;;5076593;28;20462;-81
2022/09/18 03:06:12;;;;;;;4.85;1.30;;;11.00;99.90;;;;;;5070338;28;20032;-82
2022/09/18 03:08:37;;;;;;;6.32;1.17;;;11.00;99.90;;;;;;5072336;28;20028;-82
2022/09/18 03:11:03;;;;;;;8.65;1.10;;;11.00;99.90;;;;;;5073905;28;20086;-80
2022/09/18 03:13:29;;;;;;;3.65;0.85;;;11.00;99.90;;;;;;5070910;28;20373;-82
2022/09/18 03:15:55;;;;;;;7.15;1.15;;;11.10;99.90;;;;;;5070925;28;20021;-82
2022/09/18 03:18:20;;;;;;;7.38;0.77;;;11.10;99.90;;;;;;5077420;28;20032;-81
2022/09/18 03:20:46;;;;;;;8.95;1.10;;;11.10;99.90;;;;;;5071019;28;20407;-82
2022/09/18 03:23:11;;;;;;;7.60;1.02;;;11.20;99.90;;;;;;5074083;28;20043;-80
2022/09/18 03:25:37;;;;;;;7.65;1.17;;;11.20;99.90;;;;;;5072172;28;20089;-82
2022/09/18 03:28:02;;;;;;;7.03;0.85;;;11.10;99.90;;;;;;5072691;28;20078;-80
2022/09/18 03:30:28;;;;;;;3.92;1.00;;;11.10;99.90;;;;;;5076363;28;20060;-82
2022/09/18 03:32:54;;;;;;;3.95;1.15;;;11.10;99.90;;;;;;5071764;28;20090;-80
2022/09/18 03:35:19;;;;;;;8.77;1.35;;;11.00;99.90;;;;;;5075507;28;20111;-81
2022/09/18 03:37:45;;;;;;;7.70;1.05;;;11.10;99.90;;;;;;5071320;28;20025;-81
2022/09/18 03:40:10;;;;;;;10.35;1.77;;;11.10;99.90;;;;;;5076942;28;20392;-81
2022/09/18 03:42:36;;;;;;;3.10;1.02;;;11.10;99.90;;;;;;5088271;28;20028;-80
2022/09/18 03:45:03;;;;;;;6.63;0.77;;;11.20;99.90;;;;;;5095231;28;20039;-80
2022/09/18 03:47:29;;;;;;;4.80;1.10;;;11.20;99.90;;;;;;5089199;28;20024;-82
2022/09/18 03:49:54;;;;;;;7.97;1.58;;;11.20;99.90;;;;;;5084654;28;20028;-81
2022/09/18 03:52:20;;;;;;;6.80;1.27;;;11.20;99.90;;;;;;5093747;28;20123;-81
2022/09/18 03:54:45;;;;;;;7.32;1.17;;;11.10;99.90;;;;;;5089846;28;20021;-81
2022/09/18 03:57:11;;;;;;;6.55;1.33;;;11.20;99.90;;;;;;5078807;28;20028;-83
2022/09/18 03:59:36;;;;;;;4.10;1.77;;;11.20;99.90;;;;;;5076339;28;20031;-81
2022/09/18 04:02:02;;;;;;;6.00;1.27;;;11.20;99.90;;;;;;5072333;28;20054;-80
2022/09/18 04:04:28;;;;;;;5.47;1.27;;;11.10;99.90;;;;;;5064855;28;20037;-82
2022/09/18 04:06:53;;;;;;;6.60;1.38;;;11.10;99.90;;;;;;5074261;28;20025;-81
2022/09/18 04:09:19;;;;;;;5.75;1.30;;;11.10;99.90;;;;;;5070663;28;20411;-81
2022/09/18 04:11:44;;;;;;;8.82;1.27;;;11.00;99.90;;;;;;5071905;28;20024;-83
2022/09/18 04:14:10;;;;;;;8.07;1.58;;;11.00;99.90;;;;;;5073725;28;20071;-82
2022/09/18 04:16:36;;;;;;;3.30;0.80;;;10.90;99.90;;;;;;5073500;28;20465;-82
2022/09/18 04:19:01;;;;;;;4.63;1.00;;;10.90;99.90;;;;;;5069273;28;20048;-81
2022/09/18 04:21:27;;;;;;;8.27;1.40;;;10.90;99.90;;;;;;5070694;28;20032;-81
2022/09/18 04:23:54;;;;;;;8.85;1.80;;;10.90;99.90;;;;;;5071177;28;20040;-81
2022/09/18 04:26:19;;;;;;;10.55;1.30;;;10.90;99.90;;;;;;5073457;28;20033;-80
2022/09/18 04:28:45;;;;;;;5.00;1.33;;;10.80;99.90;;;;;;5070109;28;20031;-83
2022/09/18 04:31:10;;;;;;;4.57;1.05;;;10.80;99.90;;;;;;5071096;28;20036;-80
2022/09/18 04:33:37;;;;;;;6.93;0.95;;;10.80;99.90;;;;;;5068725;28;20017;-81
2022/09/18 04:36:02;;;;;;;9.23;1.67;;;10.70;99.90;;;;;;5067258;28;20028;-82
2022/09/18 04:38:28;;;;;;;6.18;1.35;;;10.70;99.90;;;;;;5068119;28;20457;-82
2022/09/18 04:40:58;;;;;;;11.05;1.70;;;10.80;99.90;;;;;;5070606;28;20099;-81
2022/09/18 04:43:24;;;;;;;15.23;1.67;;;10.80;99.90;;;;;;5069964;28;20025;-82
2022/09/18 04:45:49;;;;;;;7.22;1.52;;;10.70;99.90;;;;;;5067101;28;20029;-82
2022/09/18 04:48:17;;;;;;;7.55;1.15;;;10.70;99.90;;;;;;5068780;28;20389;-81
2022/09/18 04:50:44;;;;;;;10.73;1.27;;;10.70;99.90;;;;;;5067906;28;20043;-81
2022/09/18 04:53:10;;;;;;;4.75;1.20;;;10.80;99.90;;;;;;5071896;28;20073;-80
2022/09/18 04:55:35;;;;;;;7.07;0.98;;;10.80;99.90;;;;;;5073920;28;20118;-81
2022/09/18 04:58:01;;;;;;;6.03;1.13;;;10.90;99.90;;;;;;5065907;28;20047;-81
2022/09/18 05:00:27;;;;;;;12.55;1.23;;;11.00;99.90;;;;;;5070107;28;20035;-80
2022/09/18 05:02:53;;;;;;;13.45;1.70;;;11.00;99.90;;;;;;5083517;28;20472;-82
2022/09/18 05:05:19;;;;;;;3.22;0.82;;;11.00;99.90;;;;;;5066096;28;20078;-80
2022/09/18 05:07:45;;;;;;;8.82;1.35;;;11.00;99.90;;;;;;5078414;28;20444;-81
2022/09/18 05:10:10;;;;;;;4.55;1.00;;;11.10;99.90;;;;;;5070331;28;20034;-81
2022/09/18 05:12:39;;;;;;;8.40;2.28;;;11.00;99.90;;;;;;5080335;28;20096;-79
2022/09/18 05:15:06;;;;;;;6.30;1.33;;;11.10;99.90;;;;;;5088199;28;20028;-80
2022/09/18 05:17:33;;;;;;;4.63;1.80;;;11.00;99.90;;;;;;5072394;28;20032;-82
2022/09/18 05:19:58;;;;;;;12.10;1.52;;;11.10;99.90;;;;;;5077595;28;20081;-80
2022/09/18 05:22:24;;;;;;;10.57;2.03;;;11.10;99.90;;;;;;5067086;28;20139;-83
2022/09/18 05:24:49;;;;;;;9.15;1.48;;;11.20;99.90;;;;;;5065522;28;20043;-81
2022/09/18 05:27:15;;;;;;;8.02;1.10;;;11.20;99.90;;;;;;5067270;28;20058;-80
2022/09/18 05:29:41;;;;;;;6.22;1.27;;;11.30;99.90;;;;;;5066020;28;20037;-83
2022/09/18 05:32:06;;;;;;;10.20;1.42;;;11.20;99.90;;;;;;5067179;28;20036;-81
2022/09/18 05:34:33;;;;;;;2.50;0.82;;;11.30;99.90;;;;;;5071244;28;20052;-80
2022/09/18 05:36:58;;;;;;;4.00;0.80;;;11.30;99.90;;;;;;5067112;28;20028;-83
2022/09/18 05:39:24;;;;;;;5.90;0.90;;;11.30;99.90;;;;;;5062564;28;20025;-84
2022/09/18 05:41:50;;;;;;;18.50;6.40;;;11.30;99.90;;;;;;5063691;28;20092;-82
2022/09/18 05:44:16;;;;;;;7.30;2.70;;;11.30;99.90;;;;;;5079789;28;20026;-80
2022/09/18 05:46:42;;;;;;;13.68;3.55;;;11.40;99.90;;;;;;5071208;28;20031;-79
2022/09/18 05:49:07;;;;;;;28.90;19.17;;;11.40;99.90;;;;;;5067052;28;20032;-79
2022/09/18 05:51:33;;;;;;;19.15;11.75;;;11.40;99.90;;;;;;5062552;28;20384;-79
2022/09/18 05:53:59;;;;;;;85.72;44.88;;;11.40;99.90;;;;;;5066128;28;20481;-79
2022/09/18 05:56:26;;;;;;;10.32;2.70;;;11.40;99.90;;;;;;5067038;28;20039;-82
2022/09/18 05:58:51;;;;;;;5.45;1.10;;;11.50;99.90;;;;;;5070062;28;20029;-84
2022/09/18 06:01:17;;;;;;;3.50;0.95;;;11.50;99.90;;;;;;5067501;28;20057;-82
2022/09/18 06:03:42;;;;;;;1.30;0.77;;;11.50;99.90;;;;;;5064626;28;20035;-82
2022/09/18 06:06:08;;;;;;;8.35;2.35;;;11.40;99.90;;;;;;5067463;28;20020;-80
2022/09/18 06:08:34;;;;;;;5.03;1.30;;;11.50;99.90;;;;;;5068709;28;20032;-79
2022/09/18 06:11:01;;;;;;;5.68;0.93;;;11.50;99.90;;;;;;5066616;28;20020;-80
2022/09/18 06:13:27;;;;;;;5.68;0.88;;;11.50;99.90;;;;;;5063785;28;20032;-83
2022/09/18 06:15:52;;;;;;;4.45;1.20;;;11.50;99.90;;;;;;5065940;28;20029;-83
2022/09/18 06:18:18;;;;;;;5.05;1.00;;;11.50;99.90;;;;;;5070673;28;20020;-84
2022/09/18 06:20:52;;;;;;;6.90;1.10;;;11.50;99.90;;;;;;5079158;28;20020;-87
2022/09/18 06:23:17;;;;;;;6.80;1.17;;;11.50;99.90;;;;;;5073106;28;20033;-82
2022/09/18 06:25:43;;;;;;;7.10;1.00;;;11.60;99.90;;;;;;5070451;28;20111;-86
2022/09/18 06:28:08;;;;;;;4.70;1.23;;;11.60;99.90;;;;;;5071078;28;20449;-83
2022/09/18 06:30:35;;;;;;;6.00;0.82;;;11.60;99.90;;;;;;5073090;28;20056;-83
2022/09/18 06:33:03;;;;;;;3.55;0.70;;;11.70;99.90;;;;;;5071962;28;20096;-82
2022/09/18 06:35:29;;;;;;;7.57;1.00;;;11.70;99.90;;;;;;5075068;28;20028;-83
2022/09/18 06:37:54;;;;;;;4.78;1.90;;;11.70;99.90;;;;;;5078959;28;20059;-86
2022/09/18 06:40:20;;;;;;;5.68;0.93;;;11.70;99.90;;;;;;5073578;28;20024;-83
2022/09/18 06:42:45;;;;;;;4.20;1.08;;;11.80;99.90;;;;;;5069761;28;20077;-83
2022/09/18 06:45:11;;;;;;;4.55;1.05;;;11.90;99.90;;;;;;5075957;28;20047;-83
2022/09/18 06:47:37;;;;;;;10.55;1.58;;;11.90;99.90;;;;;;5074097;28;20028;-85
2022/09/18 06:50:03;;;;;;;4.60;0.73;;;11.90;99.90;;;;;;5078869;28;20125;-86
2022/09/18 06:52:29;;;;;;;5.20;1.70;;;11.90;99.90;;;;;;5074920;28;20106;-82
2022/09/18 06:54:55;;;;;;;4.20;1.27;;;11.90;99.90;;;;;;5073470;28;20212;-82
2022/09/18 06:57:20;;;;;;;2.88;1.10;;;11.90;99.90;;;;;;5081331;28;20094;-85
2022/09/18 06:59:46;;;;;;;11.77;3.03;;;12.00;99.90;;;;;;5071516;28;20024;-83
2022/09/18 07:02:13;;;;;;;5.05;2.28;;;12.00;99.90;;;;;;5065567;28;20724;-86
2022/09/18 07:04:39;;;;;;;7.63;2.30;;;12.00;99.90;;;;;;5064047;28;20041;-82
2022/09/18 07:07:06;;;;;;;3.20;1.55;;;12.00;99.90;;;;;;5073793;28;20021;-82
2022/09/18 07:09:31;;;;;;;2.88;1.38;;;12.10;99.90;;;;;;5080389;28;20035;-83
2022/09/18 07:11:57;;;;;;;8.80;1.98;;;12.20;99.90;;;;;;5069577;28;20044;-84
2022/09/18 07:14:22;;;;;;;5.00;0.77;;;12.30;99.90;;;;;;5071499;28;20119;-85
2022/09/18 07:16:48;;;;;;;5.05;0.60;;;12.30;99.90;;;;;;5073012;28;20048;-81
2022/09/18 07:19:13;;;;;;;2.97;1.00;;;12.40;99.90;;;;;;5075900;28;20029;-85
2022/09/18 07:21:39;;;;;;;5.30;0.80;;;12.30;99.90;;;;;;5069664;28;20035;-84
2022/09/18 07:24:05;;;;;;;5.78;1.55;;;12.30;99.90;;;;;;5076259;28;20086;-82
2022/09/18 07:26:30;;;;;;;10.55;1.88;;;12.30;99.90;;;;;;5070182;28;20070;-82
2022/09/18 07:28:56;;;;;;;5.85;1.10;;;12.30;99.90;;;;;;5070913;28;20063;-82
2022/09/18 07:31:21;;;;;;;6.10;1.20;;;12.30;99.90;;;;;;5069328;28;20109;-82
2022/09/18 07:33:54;;;;;;;5.38;1.30;;;12.40;99.90;;;;;;5066228;28;20024;-86
2022/09/18 07:36:20;;;;;;;4.13;1.45;;;12.50;99.90;;;;;;5070230;28;20494;-85
2022/09/18 07:38:50;;;;;;;6.20;1.08;;;12.50;99.90;;;;;;5071679;28;20119;-86
2022/09/18 07:41:16;;;;;;;3.30;0.85;;;12.50;99.90;;;;;;5067142;28;20039;-83
2022/09/18 07:43:41;;;;;;;6.65;1.42;;;12.50;99.90;;;;;;5076003;28;20033;-83
2022/09/18 07:46:07;;;;;;;5.35;1.10;;;12.60;99.90;;;;;;5073981;28;20028;-82
2022/09/18 07:48:36;;;;;;;5.32;0.85;;;12.70;99.90;;;;;;5068158;28;20024;-82
2022/09/18 07:51:02;;;;;;;4.70;0.73;;;12.90;99.90;;;;;;5073103;28;20466;-84
2022/09/18 07:53:28;;;;;;;6.63;0.70;;;13.00;99.90;;;;;;5070240;28;20555;-85
2022/09/18 07:55:54;;;;;;;5.43;1.27;;;13.10;99.60;;;;;;5062721;28;20465;-82
2022/09/18 07:58:21;;;;;;;7.07;1.35;;;13.20;99.30;;;;;;5066104;28;20052;-81
2022/09/18 08:00:47;;;;;;;8.80;1.77;;;13.30;99.20;;;;;;5063209;28;20025;-80
2022/09/18 08:03:13;;;;;;;6.13;0.90;;;13.40;99.20;;;;;;5061160;28;20085;-82
2022/09/18 08:05:39;;;;;;;4.70;0.90;;;13.50;99.20;;;;;;5066776;28;20111;-82
2022/09/18 08:08:11;;;;;;;3.55;0.80;;;13.40;98.60;;;;;;5059747;28;20509;-83
